sensor_id;sensor_type;location;lat;lon;timestamp;pressure;altitude;pressure_sealevel;temperature;humidity
46241;BME280;31961;52.416;-0.732;2022-08-25T00:02:27;100871.61;;;18.50;60.70
46241;BME280;31961;52.416;-0.732;2022-08-25T00:04:55;100870.49;;;18.33;61.11
46241;BME280;31961;52.416;-0.732;2022-08-25T00:07:22;100872.43;;;18.45;60.81
46241;BME280;31961;52.416;-0.732;2022-08-25T00:09:50;100874.33;;;17.38;62.45
46241;BME280;31961;52.416;-0.732;2022-08-25T00:12:16;100868.44;;;17.64;63.44
46241;BME280;31961;52.416;-0.732;2022-08-25T00:14:44;100864.28;;;17.12;63.57
46241;BME280;31961;52.416;-0.732;2022-08-25T00:17:12;100861.17;;;17.60;62.08
46241;BME280;31961;52.416;-0.732;2022-08-25T00:19:40;100857.27;;;18.72;59.94
46241;BME280;31961;52.416;-0.732;2022-08-25T00:22:07;100856.84;;;19.08;58.99
46241;BME280;31961;52.416;-0.732;2022-08-25T00:24:34;100857.21;;;19.27;58.49
46241;BME280;31961;52.416;-0.732;2022-08-25T00:27:02;100849.60;;;18.18;61.31
46241;BME280;31961;52.416;-0.732;2022-08-25T00:29:31;100853.62;;;17.55;64.33
46241;BME280;31961;52.416;-0.732;2022-08-25T00:31:58;100856.24;;;17.00;66.19
46241;BME280;31961;52.416;-0.732;2022-08-25T00:34:28;100859.12;;;16.55;66.00
46241;BME280;31961;52.416;-0.732;2022-08-25T00:36:56;100858.23;;;17.45;63.80
46241;BME280;31961;52.416;-0.732;2022-08-25T00:39:24;100865.35;;;16.63;67.00
46241;BME280;31961;52.416;-0.732;2022-08-25T00:41:53;100863.82;;;17.61;64.00
46241;BME280;31961;52.416;-0.732;2022-08-25T00:44:21;100859.71;;;17.89;62.03
46241;BME280;31961;52.416;-0.732;2022-08-25T00:46:50;100851.90;;;18.26;61.18
46241;BME280;31961;52.416;-0.732;2022-08-25T00:49:20;100849.60;;;18.91;59.48
46241;BME280;31961;52.416;-0.732;2022-08-25T00:51:52;100849.98;;;19.00;59.00
46241;BME280;31961;52.416;-0.732;2022-08-25T00:54:25;100847.73;;;18.67;59.54
46241;BME280;31961;52.416;-0.732;2022-08-25T00:56:54;100848.33;;;18.11;61.37
46241;BME280;31961;52.416;-0.732;2022-08-25T00:59:23;100854.69;;;18.31;61.04
46241;BME280;31961;52.416;-0.732;2022-08-25T01:01:52;100853.98;;;18.77;60.76
46241;BME280;31961;52.416;-0.732;2022-08-25T01:04:19;100852.88;;;18.37;60.57
46241;BME280;31961;52.416;-0.732;2022-08-25T01:06:48;100856.75;;;18.28;60.77
46241;BME280;31961;52.416;-0.732;2022-08-25T01:09:16;100860.57;;;17.94;62.49
46241;BME280;31961;52.416;-0.732;2022-08-25T01:11:45;100868.21;;;16.74;65.20
46241;BME280;31961;52.416;-0.732;2022-08-25T01:14:15;100868.29;;;16.63;66.12
46241;BME280;31961;52.416;-0.732;2022-08-25T01:16:43;100874.47;;;16.76;65.19
46241;BME280;31961;52.416;-0.732;2022-08-25T01:19:13;100876.20;;;17.59;63.55
46241;BME280;31961;52.416;-0.732;2022-08-25T01:21:44;100878.91;;;17.48;63.89
46241;BME280;31961;52.416;-0.732;2022-08-25T01:24:17;100871.81;;;18.02;61.68
46241;BME280;31961;52.416;-0.732;2022-08-25T01:26:46;100874.10;;;18.80;60.21
46241;BME280;31961;52.416;-0.732;2022-08-25T01:29:14;100870.87;;;18.80;59.62
46241;BME280;31961;52.416;-0.732;2022-08-25T01:31:41;100865.91;;;17.63;62.01
46241;BME280;31961;52.416;-0.732;2022-08-25T01:34:10;100863.89;;;17.40;64.17
46241;BME280;31961;52.416;-0.732;2022-08-25T01:36:39;100860.58;;;17.22;65.57
46241;BME280;31961;52.416;-0.732;2022-08-25T01:39:07;100857.16;;;17.78;63.89
46241;BME280;31961;52.416;-0.732;2022-08-25T01:41:40;100854.96;;;17.24;65.06
46241;BME280;31961;52.416;-0.732;2022-08-25T01:44:11;100852.97;;;17.12;65.62
46241;BME280;31961;52.416;-0.732;2022-08-25T01:46:38;100855.68;;;16.87;66.54
46241;BME280;31961;52.416;-0.732;2022-08-25T01:49:05;100860.31;;;16.78;67.60
46241;BME280;31961;52.416;-0.732;2022-08-25T01:51:37;100860.34;;;17.38;65.31
46241;BME280;31961;52.416;-0.732;2022-08-25T01:54:05;100860.84;;;17.75;64.10
46241;BME280;31961;52.416;-0.732;2022-08-25T01:56:32;100865.46;;;17.52;64.46
46241;BME280;31961;52.416;-0.732;2022-08-25T01:59:00;100864.26;;;16.92;65.02
46241;BME280;31961;52.416;-0.732;2022-08-25T02:01:28;100861.37;;;16.90;66.01
46241;BME280;31961;52.416;-0.732;2022-08-25T02:03:56;100856.72;;;17.54;64.90
46241;BME280;31961;52.416;-0.732;2022-08-25T02:06:26;100852.01;;;17.36;64.92
46241;BME280;31961;52.416;-0.732;2022-08-25T02:08:57;100848.76;;;17.20;65.37
46241;BME280;31961;52.416;-0.732;2022-08-25T02:11:24;100844.59;;;17.51;64.08
46241;BME280;31961;52.416;-0.732;2022-08-25T02:13:51;100836.79;;;17.94;63.79
46241;BME280;31961;52.416;-0.732;2022-08-25T02:16:24;100832.43;;;17.61;64.37
46241;BME280;31961;52.416;-0.732;2022-08-25T02:18:53;100831.59;;;17.60;64.69
46241;BME280;31961;52.416;-0.732;2022-08-25T02:21:22;100833.27;;;17.14;65.28
46241;BME280;31961;52.416;-0.732;2022-08-25T02:23:49;100834.89;;;17.47;64.17
46241;BME280;31961;52.416;-0.732;2022-08-25T02:26:17;100834.39;;;17.48;64.68
46241;BME280;31961;52.416;-0.732;2022-08-25T02:28:45;100835.34;;;16.86;66.56
46241;BME280;31961;52.416;-0.732;2022-08-25T02:31:13;100838.50;;;17.15;66.38
46241;BME280;31961;52.416;-0.732;2022-08-25T02:33:41;100845.15;;;16.94;66.84
46241;BME280;31961;52.416;-0.732;2022-08-25T02:36:09;100842.32;;;16.94;65.97
46241;BME280;31961;52.416;-0.732;2022-08-25T02:38:37;100835.40;;;16.70;66.62
46241;BME280;31961;52.416;-0.732;2022-08-25T02:41:10;100830.00;;;17.06;65.94
46241;BME280;31961;52.416;-0.732;2022-08-25T02:43:37;100830.69;;;17.60;65.19
46241;BME280;31961;52.416;-0.732;2022-08-25T02:46:04;100835.01;;;16.95;65.87
46241;BME280;31961;52.416;-0.732;2022-08-25T02:48:32;100834.18;;;15.87;69.67
46241;BME280;31961;52.416;-0.732;2022-08-25T02:51:00;100827.65;;;16.35;69.26
46241;BME280;31961;52.416;-0.732;2022-08-25T02:53:28;100820.35;;;16.83;67.78
46241;BME280;31961;52.416;-0.732;2022-08-25T02:55:56;100821.66;;;16.77;69.11
46241;BME280;31961;52.416;-0.732;2022-08-25T02:58:23;100826.31;;;16.23;70.46
46241;BME280;31961;52.416;-0.732;2022-08-25T03:00:51;100831.51;;;16.11;70.21
46241;BME280;31961;52.416;-0.732;2022-08-25T03:03:19;100836.71;;;16.61;68.65
46241;BME280;31961;52.416;-0.732;2022-08-25T03:05:46;100845.69;;;16.01;69.88
46241;BME280;31961;52.416;-0.732;2022-08-25T03:08:14;100846.06;;;15.88;70.18
46241;BME280;31961;52.416;-0.732;2022-08-25T03:10:41;100833.97;;;16.80;67.06
46241;BME280;31961;52.416;-0.732;2022-08-25T03:13:09;100824.12;;;16.49;68.65
46241;BME280;31961;52.416;-0.732;2022-08-25T03:15:37;100815.89;;;16.34;69.47
46241;BME280;31961;52.416;-0.732;2022-08-25T03:18:05;100820.22;;;16.60;69.46
46241;BME280;31961;52.416;-0.732;2022-08-25T03:20:32;100822.62;;;16.33;70.06
46241;BME280;31961;52.416;-0.732;2022-08-25T03:23:00;100813.84;;;17.24;67.55
46241;BME280;31961;52.416;-0.732;2022-08-25T03:25:27;100803.95;;;17.13;66.66
46241;BME280;31961;52.416;-0.732;2022-08-25T03:27:54;100812.56;;;16.31;69.11
46241;BME280;31961;52.416;-0.732;2022-08-25T03:30:21;100818.50;;;16.46;68.84
46241;BME280;31961;52.416;-0.732;2022-08-25T03:32:48;100815.69;;;15.68;71.44
46241;BME280;31961;52.416;-0.732;2022-08-25T03:35:16;100801.77;;;16.22;69.83
46241;BME280;31961;52.416;-0.732;2022-08-25T03:37:44;100795.91;;;16.12;69.58
46241;BME280;31961;52.416;-0.732;2022-08-25T03:40:14;100794.53;;;16.51;69.46
46241;BME280;31961;52.416;-0.732;2022-08-25T03:42:42;100795.62;;;16.50;68.31
46241;BME280;31961;52.416;-0.732;2022-08-25T03:45:11;100792.44;;;16.03;70.94
46241;BME280;31961;52.416;-0.732;2022-08-25T03:47:39;100787.98;;;16.06;71.79
46241;BME280;31961;52.416;-0.732;2022-08-25T03:50:10;100782.93;;;16.73;69.62
46241;BME280;31961;52.416;-0.732;2022-08-25T03:52:38;100774.91;;;15.21;72.59
46241;BME280;31961;52.416;-0.732;2022-08-25T03:55:08;100770.86;;;15.53;72.95
46241;BME280;31961;52.416;-0.732;2022-08-25T03:57:36;100785.47;;;15.18;74.19
46241;BME280;31961;52.416;-0.732;2022-08-25T04:00:05;100776.70;;;15.67;72.13
46241;BME280;31961;52.416;-0.732;2022-08-25T04:02:32;100778.18;;;16.79;68.99
46241;BME280;31961;52.416;-0.732;2022-08-25T04:04:59;100787.91;;;15.30;71.59
46241;BME280;31961;52.416;-0.732;2022-08-25T04:07:26;100783.33;;;16.62;68.91
46241;BME280;31961;52.416;-0.732;2022-08-25T04:09:54;100785.11;;;16.69;68.75
46241;BME280;31961;52.416;-0.732;2022-08-25T04:12:21;100776.32;;;16.52;68.61
46241;BME280;31961;52.416;-0.732;2022-08-25T04:14:49;100764.31;;;16.53;67.81
46241;BME280;31961;52.416;-0.732;2022-08-25T04:17:17;100761.38;;;16.78;67.42
46241;BME280;31961;52.416;-0.732;2022-08-25T04:19:44;100766.00;;;16.70;66.95
46241;BME280;31961;52.416;-0.732;2022-08-25T04:22:11;100777.59;;;16.84;67.07
46241;BME280;31961;52.416;-0.732;2022-08-25T04:24:39;100776.92;;;16.78;66.25
46241;BME280;31961;52.416;-0.732;2022-08-25T04:27:06;100772.84;;;16.94;65.80
46241;BME280;31961;52.416;-0.732;2022-08-25T04:29:34;100768.29;;;17.19;65.78
46241;BME280;31961;52.416;-0.732;2022-08-25T04:32:02;100768.33;;;16.71;67.67
46241;BME280;31961;52.416;-0.732;2022-08-25T04:34:30;100772.41;;;16.76;67.02
46241;BME280;31961;52.416;-0.732;2022-08-25T04:36:58;100776.11;;;16.02;70.08
46241;BME280;31961;52.416;-0.732;2022-08-25T04:39:26;100774.48;;;16.09;70.20
46241;BME280;31961;52.416;-0.732;2022-08-25T04:41:53;100779.82;;;15.67;71.68
46241;BME280;31961;52.416;-0.732;2022-08-25T04:44:21;100786.36;;;15.24;73.38
46241;BME280;31961;52.416;-0.732;2022-08-25T04:46:48;100778.18;;;15.95;71.49
46241;BME280;31961;52.416;-0.732;2022-08-25T04:49:16;100789.03;;;15.85;72.74
46241;BME280;31961;52.416;-0.732;2022-08-25T04:51:43;100802.71;;;15.38;74.13
46241;BME280;31961;52.416;-0.732;2022-08-25T04:54:13;100811.01;;;14.65;74.91
46241;BME280;31961;52.416;-0.732;2022-08-25T04:56:41;100813.88;;;14.68;75.07
46241;BME280;31961;52.416;-0.732;2022-08-25T04:59:11;100823.71;;;14.88;75.12
46241;BME280;31961;52.416;-0.732;2022-08-25T05:01:40;100822.55;;;15.55;73.13
46241;BME280;31961;52.416;-0.732;2022-08-25T05:04:09;100822.11;;;15.44;74.57
46241;BME280;31961;52.416;-0.732;2022-08-25T05:06:36;100818.94;;;15.14;74.10
46241;BME280;31961;52.416;-0.732;2022-08-25T05:09:04;100815.98;;;15.39;73.40
46241;BME280;31961;52.416;-0.732;2022-08-25T05:11:31;100814.05;;;15.56;73.24
46241;BME280;31961;52.416;-0.732;2022-08-25T05:14:00;100814.50;;;15.65;73.01
46241;BME280;31961;52.416;-0.732;2022-08-25T05:16:28;100831.26;;;14.96;75.25
46241;BME280;31961;52.416;-0.732;2022-08-25T05:18:56;100832.70;;;15.78;73.56
46241;BME280;31961;52.416;-0.732;2022-08-25T05:21:26;100835.51;;;15.17;75.60
46241;BME280;31961;52.416;-0.732;2022-08-25T05:23:55;100836.28;;;14.97;75.43
46241;BME280;31961;52.416;-0.732;2022-08-25T05:26:24;100843.82;;;15.10;76.88
46241;BME280;31961;52.416;-0.732;2022-08-25T05:28:53;100833.29;;;15.06;75.84
46241;BME280;31961;52.416;-0.732;2022-08-25T05:31:22;100829.40;;;14.41;76.40
46241;BME280;31961;52.416;-0.732;2022-08-25T05:33:50;100829.19;;;14.85;76.90
46241;BME280;31961;52.416;-0.732;2022-08-25T05:36:18;100831.09;;;14.76;77.26
46241;BME280;31961;52.416;-0.732;2022-08-25T05:38:46;100829.92;;;14.62;76.51
46241;BME280;31961;52.416;-0.732;2022-08-25T05:41:16;100833.14;;;14.71;77.32
46241;BME280;31961;52.416;-0.732;2022-08-25T05:43:47;100824.83;;;15.16;75.84
46241;BME280;31961;52.416;-0.732;2022-08-25T05:46:17;100823.01;;;14.68;77.56
46241;BME280;31961;52.416;-0.732;2022-08-25T05:48:46;100831.82;;;14.42;77.21
46241;BME280;31961;52.416;-0.732;2022-08-25T05:51:14;100835.87;;;14.93;75.75
46241;BME280;31961;52.416;-0.732;2022-08-25T05:53:43;100843.06;;;14.77;76.15
46241;BME280;31961;52.416;-0.732;2022-08-25T05:56:11;100838.33;;;14.59;75.68
46241;BME280;31961;52.416;-0.732;2022-08-25T05:58:40;100840.18;;;15.21;74.63
46241;BME280;31961;52.416;-0.732;2022-08-25T06:01:09;100842.93;;;15.88;72.40
46241;BME280;31961;52.416;-0.732;2022-08-25T06:03:37;100855.33;;;15.34;73.31
46241;BME280;31961;52.416;-0.732;2022-08-25T06:06:05;100850.01;;;15.76;71.61
46241;BME280;31961;52.416;-0.732;2022-08-25T06:08:33;100858.49;;;15.86;71.69
46241;BME280;31961;52.416;-0.732;2022-08-25T06:11:00;100861.58;;;15.61;73.15
46241;BME280;31961;52.416;-0.732;2022-08-25T06:13:28;100875.92;;;14.78;74.28
46241;BME280;31961;52.416;-0.732;2022-08-25T06:15:56;100875.23;;;15.36;72.55
46241;BME280;31961;52.416;-0.732;2022-08-25T06:18:24;100878.35;;;15.37;73.44
46241;BME280;31961;52.416;-0.732;2022-08-25T06:20:51;100876.44;;;15.96;71.37
46241;BME280;31961;52.416;-0.732;2022-08-25T06:23:18;100892.93;;;15.39;73.11
46241;BME280;31961;52.416;-0.732;2022-08-25T06:25:48;100901.95;;;14.52;74.40
46241;BME280;31961;52.416;-0.732;2022-08-25T06:28:16;100902.48;;;14.84;74.47
46241;BME280;31961;52.416;-0.732;2022-08-25T06:30:43;100903.67;;;15.23;73.77
46241;BME280;31961;52.416;-0.732;2022-08-25T06:33:11;100900.78;;;15.07;73.95
46241;BME280;31961;52.416;-0.732;2022-08-25T06:35:40;100894.35;;;15.52;72.48
46241;BME280;31961;52.416;-0.732;2022-08-25T06:38:08;100890.45;;;15.99;70.85
46241;BME280;31961;52.416;-0.732;2022-08-25T06:40:35;100892.47;;;15.62;71.89
46241;BME280;31961;52.416;-0.732;2022-08-25T06:43:02;100890.51;;;15.70;71.05
46241;BME280;31961;52.416;-0.732;2022-08-25T06:45:29;100886.77;;;15.76;70.78
46241;BME280;31961;52.416;-0.732;2022-08-25T06:47:56;100887.92;;;15.71;72.00
46241;BME280;31961;52.416;-0.732;2022-08-25T06:50:24;100887.33;;;15.60;72.63
46241;BME280;31961;52.416;-0.732;2022-08-25T06:52:51;100888.34;;;15.64;72.76
46241;BME280;31961;52.416;-0.732;2022-08-25T06:55:18;100891.48;;;15.25;72.96
46241;BME280;31961;52.416;-0.732;2022-08-25T06:57:45;100892.16;;;15.25;73.08
46241;BME280;31961;52.416;-0.732;2022-08-25T07:00:12;100894.63;;;15.71;70.93
46241;BME280;31961;52.416;-0.732;2022-08-25T07:02:40;100897.46;;;15.53;71.83
46241;BME280;31961;52.416;-0.732;2022-08-25T07:05:08;100898.50;;;15.29;72.73
46241;BME280;31961;52.416;-0.732;2022-08-25T07:07:34;100894.42;;;15.41;73.60
46241;BME280;31961;52.416;-0.732;2022-08-25T07:10:01;100890.29;;;14.72;74.23
46241;BME280;31961;52.416;-0.732;2022-08-25T07:12:28;100892.25;;;15.12;73.68
46241;BME280;31961;52.416;-0.732;2022-08-25T07:14:56;100894.39;;;14.74;73.71
46241;BME280;31961;52.416;-0.732;2022-08-25T07:17:23;100899.39;;;15.21;73.01
46241;BME280;31961;52.416;-0.732;2022-08-25T07:19:50;100901.77;;;14.99;73.14
46241;BME280;31961;52.416;-0.732;2022-08-25T07:22:18;100897.15;;;16.20;70.31
46241;BME280;31961;52.416;-0.732;2022-08-25T07:24:45;100896.72;;;15.62;71.13
46241;BME280;31961;52.416;-0.732;2022-08-25T07:27:13;100892.79;;;16.24;69.20
46241;BME280;31961;52.416;-0.732;2022-08-25T07:29:40;100898.47;;;15.92;70.10
46241;BME280;31961;52.416;-0.732;2022-08-25T07:32:08;100898.16;;;16.23;68.72
46241;BME280;31961;52.416;-0.732;2022-08-25T07:34:35;100898.03;;;16.23;68.50
46241;BME280;31961;52.416;-0.732;2022-08-25T07:37:02;100899.79;;;16.17;68.79
46241;BME280;31961;52.416;-0.732;2022-08-25T07:39:31;100898.63;;;16.11;69.71
46241;BME280;31961;52.416;-0.732;2022-08-25T07:41:58;100897.40;;;15.44;71.45
46241;BME280;31961;52.416;-0.732;2022-08-25T07:44:26;100901.73;;;15.22;73.14
46241;BME280;31961;52.416;-0.732;2022-08-25T07:46:54;100901.81;;;14.90;72.83
46241;BME280;31961;52.416;-0.732;2022-08-25T07:49:23;100901.32;;;14.80;73.97
46241;BME280;31961;52.416;-0.732;2022-08-25T07:51:52;100895.44;;;15.18;72.40
46241;BME280;31961;52.416;-0.732;2022-08-25T07:54:19;100885.11;;;15.55;71.04
46241;BME280;31961;52.416;-0.732;2022-08-25T07:56:47;100879.35;;;14.98;71.88
46241;BME280;31961;52.416;-0.732;2022-08-25T07:59:14;100877.01;;;15.41;71.32
46241;BME280;31961;52.416;-0.732;2022-08-25T08:01:41;100890.72;;;14.29;75.39
46241;BME280;31961;52.416;-0.732;2022-08-25T08:04:08;100893.74;;;14.20;75.90
46241;BME280;31961;52.416;-0.732;2022-08-25T08:06:35;100892.51;;;14.75;74.98
46241;BME280;31961;52.416;-0.732;2022-08-25T08:09:03;100893.23;;;14.76;73.98
46241;BME280;31961;52.416;-0.732;2022-08-25T08:11:33;100888.03;;;15.39;71.66
46241;BME280;31961;52.416;-0.732;2022-08-25T08:14:01;100889.56;;;16.31;69.12
46241;BME280;31961;52.416;-0.732;2022-08-25T08:16:30;100901.21;;;15.64;69.91
46241;BME280;31961;52.416;-0.732;2022-08-25T08:18:58;100914.81;;;15.05;72.48
46241;BME280;31961;52.416;-0.732;2022-08-25T08:21:27;100922.58;;;14.93;72.82
46241;BME280;31961;52.416;-0.732;2022-08-25T08:23:55;100922.52;;;14.72;72.84
46241;BME280;31961;52.416;-0.732;2022-08-25T08:26:24;100918.88;;;16.05;71.24
46241;BME280;31961;52.416;-0.732;2022-08-25T08:28:51;100919.59;;;15.14;71.18
46241;BME280;31961;52.416;-0.732;2022-08-25T08:31:20;100918.90;;;14.58;73.61
46241;BME280;31961;52.416;-0.732;2022-08-25T08:33:48;100918.40;;;14.61;74.51
46241;BME280;31961;52.416;-0.732;2022-08-25T08:36:17;100918.68;;;15.46;73.67
46241;BME280;31961;52.416;-0.732;2022-08-25T08:38:45;100913.76;;;13.96;76.10
46241;BME280;31961;52.416;-0.732;2022-08-25T08:41:27;100908.12;;;14.30;76.46
46241;BME280;31961;52.416;-0.732;2022-08-25T08:44:05;100905.72;;;14.58;77.11
46241;BME280;31961;52.416;-0.732;2022-08-25T08:46:38;100900.90;;;15.28;73.98
46241;BME280;31961;52.416;-0.732;2022-08-25T08:49:15;100896.52;;;15.36;72.85
46241;BME280;31961;52.416;-0.732;2022-08-25T08:52:00;100892.86;;;15.07;73.52
46241;BME280;31961;52.416;-0.732;2022-08-25T08:54:33;100887.86;;;15.96;71.90
46241;BME280;31961;52.416;-0.732;2022-08-25T08:57:07;100886.42;;;15.78;71.51
46241;BME280;31961;52.416;-0.732;2022-08-25T08:59:42;100891.47;;;14.62;74.38
46241;BME280;31961;52.416;-0.732;2022-08-25T09:02:18;100887.89;;;15.07;74.16
46241;BME280;31961;52.416;-0.732;2022-08-25T09:04:52;100881.10;;;15.07;74.47
46241;BME280;31961;52.416;-0.732;2022-08-25T09:07:24;100876.82;;;14.96;74.72
46241;BME280;31961;52.416;-0.732;2022-08-25T09:09:53;100859.10;;;16.10;71.61
46241;BME280;31961;52.416;-0.732;2022-08-25T09:12:27;100867.84;;;14.83;75.21
46241;BME280;31961;52.416;-0.732;2022-08-25T09:15:05;100870.73;;;14.74;75.31
46241;BME280;31961;52.416;-0.732;2022-08-25T09:17:44;100873.91;;;14.06;77.74
46241;BME280;31961;52.416;-0.732;2022-08-25T09:20:32;100877.08;;;14.43;78.42
46241;BME280;31961;52.416;-0.732;2022-08-25T09:23:13;100874.11;;;14.41;78.74
46241;BME280;31961;52.416;-0.732;2022-08-25T09:25:55;100875.21;;;14.03;78.62
46241;BME280;31961;52.416;-0.732;2022-08-25T09:28:30;100874.51;;;13.70;80.20
46241;BME280;31961;52.416;-0.732;2022-08-25T09:31:00;100876.45;;;13.73;80.11
46241;BME280;31961;52.416;-0.732;2022-08-25T09:33:31;100876.94;;;14.32;79.16
46241;BME280;31961;52.416;-0.732;2022-08-25T09:35:58;100881.77;;;13.91;79.48
46241;BME280;31961;52.416;-0.732;2022-08-25T09:38:27;100889.56;;;13.89;80.99
46241;BME280;31961;52.416;-0.732;2022-08-25T09:40:55;100892.11;;;13.98;80.95
46241;BME280;31961;52.416;-0.732;2022-08-25T09:43:31;100889.88;;;14.07;80.15
46241;BME280;31961;52.416;-0.732;2022-08-25T09:46:01;100890.86;;;14.20;80.76
46241;BME280;31961;52.416;-0.732;2022-08-25T09:48:31;100891.68;;;14.42;79.81
46241;BME280;31961;52.416;-0.732;2022-08-25T09:51:01;100894.12;;;14.73;78.29
46241;BME280;31961;52.416;-0.732;2022-08-25T09:53:42;100900.13;;;14.30;78.23
46241;BME280;31961;52.416;-0.732;2022-08-25T09:56:11;100908.88;;;13.91;80.62
46241;BME280;31961;52.416;-0.732;2022-08-25T09:58:39;100906.18;;;14.21;79.79
46241;BME280;31961;52.416;-0.732;2022-08-25T10:01:13;100906.28;;;14.51;78.92
46241;BME280;31961;52.416;-0.732;2022-08-25T10:04:00;100904.94;;;14.44;79.30
46241;BME280;31961;52.416;-0.732;2022-08-25T10:06:32;100907.31;;;15.19;77.15
46241;BME280;31961;52.416;-0.732;2022-08-25T10:09:03;100910.34;;;14.53;77.86
46241;BME280;31961;52.416;-0.732;2022-08-25T10:11:35;100911.79;;;14.93;75.96
46241;BME280;31961;52.416;-0.732;2022-08-25T10:14:26;100905.47;;;15.62;74.24
46241;BME280;31961;52.416;-0.732;2022-08-25T10:17:12;100897.59;;;14.72;75.88
46241;BME280;31961;52.416;-0.732;2022-08-25T10:19:40;100894.02;;;14.14;78.19
46241;BME280;31961;52.416;-0.732;2022-08-25T10:22:09;100892.20;;;14.27;78.44
46241;BME280;31961;52.416;-0.732;2022-08-25T10:24:37;100887.53;;;14.52;76.09
46241;BME280;31961;52.416;-0.732;2022-08-25T10:27:15;100886.34;;;14.54;76.59
46241;BME280;31961;52.416;-0.732;2022-08-25T10:29:59;100885.35;;;15.22;73.82
46241;BME280;31961;52.416;-0.732;2022-08-25T10:32:38;100887.03;;;15.23;74.65
46241;BME280;31961;52.416;-0.732;2022-08-25T10:35:11;100885.07;;;15.53;72.92
46241;BME280;31961;52.416;-0.732;2022-08-25T10:37:46;100891.62;;;14.58;75.88
46241;BME280;31961;52.416;-0.732;2022-08-25T10:40:21;100883.72;;;14.78;76.89
46241;BME280;31961;52.416;-0.732;2022-08-25T10:43:00;100867.26;;;14.65;75.17
46241;BME280;31961;52.416;-0.732;2022-08-25T10:45:34;100861.55;;;14.28;75.96
46241;BME280;31961;52.416;-0.732;2022-08-25T10:48:24;100852.49;;;15.49;73.39
46241;BME280;31961;52.416;-0.732;2022-08-25T10:50:58;100835.91;;;15.73;71.05
46241;BME280;31961;52.416;-0.732;2022-08-25T10:53:37;100825.30;;;16.07;70.46
46241;BME280;31961;52.416;-0.732;2022-08-25T10:56:11;100832.87;;;16.25;69.53
46241;BME280;31961;52.416;-0.732;2022-08-25T10:58:52;100855.06;;;15.32;72.17
46241;BME280;31961;52.416;-0.732;2022-08-25T11:01:30;100858.60;;;14.75;73.48
46241;BME280;31961;52.416;-0.732;2022-08-25T11:04:06;100828.54;;;14.36;74.59
46241;BME280;31961;52.416;-0.732;2022-08-25T11:06:39;100808.96;;;15.04;74.65
46241;BME280;31961;52.416;-0.732;2022-08-25T11:09:11;100808.29;;;14.74;74.06
46241;BME280;31961;52.416;-0.732;2022-08-25T11:11:46;100806.25;;;14.84;73.43
46241;BME280;31961;52.416;-0.732;2022-08-25T11:14:19;100814.00;;;14.78;73.34
46241;BME280;31961;52.416;-0.732;2022-08-25T11:16:52;100833.60;;;15.09;73.25
46241;BME280;31961;52.416;-0.732;2022-08-25T11:19:27;100859.73;;;14.65;74.24
46241;BME280;31961;52.416;-0.732;2022-08-25T11:22:03;100875.20;;;14.49;74.93
46241;BME280;31961;52.416;-0.732;2022-08-25T11:24:41;100882.43;;;13.62;78.27
46241;BME280;31961;52.416;-0.732;2022-08-25T11:27:16;100881.50;;;14.52;77.30
46241;BME280;31961;52.416;-0.732;2022-08-25T11:29:52;100892.96;;;13.55;78.01
46241;BME280;31961;52.416;-0.732;2022-08-25T11:32:24;100911.99;;;14.14;77.18
46241;BME280;31961;52.416;-0.732;2022-08-25T11:34:52;100913.39;;;13.68;77.77
46241;BME280;31961;52.416;-0.732;2022-08-25T11:37:23;100909.97;;;13.59;77.86
46241;BME280;31961;52.416;-0.732;2022-08-25T11:40:07;100903.51;;;14.04;76.34
46241;BME280;31961;52.416;-0.732;2022-08-25T11:42:48;100896.68;;;14.51;75.01
46241;BME280;31961;52.416;-0.732;2022-08-25T11:45:30;100901.67;;;15.28;73.45
46241;BME280;31961;52.416;-0.732;2022-08-25T11:48:11;100908.20;;;14.44;73.85
46241;BME280;31961;52.416;-0.732;2022-08-25T11:50:58;100907.43;;;14.20;75.45
46241;BME280;31961;52.416;-0.732;2022-08-25T11:53:28;100900.72;;;14.28;75.05
46241;BME280;31961;52.416;-0.732;2022-08-25T11:55:57;100896.38;;;14.21;75.02
46241;BME280;31961;52.416;-0.732;2022-08-25T11:58:38;100903.48;;;13.86;75.32
46241;BME280;31961;52.416;-0.732;2022-08-25T12:01:09;100914.74;;;13.52;76.81
46241;BME280;31961;52.416;-0.732;2022-08-25T12:03:55;100913.86;;;14.05;75.35
46241;BME280;31961;52.416;-0.732;2022-08-25T12:06:35;100922.41;;;14.61;74.14
46241;BME280;31961;52.416;-0.732;2022-08-25T12:09:20;100933.60;;;13.93;75.06
46241;BME280;31961;52.416;-0.732;2022-08-25T12:11:50;100933.70;;;14.78;72.13
46241;BME280;31961;52.416;-0.732;2022-08-25T12:14:40;100931.80;;;14.74;72.47
46241;BME280;31961;52.416;-0.732;2022-08-25T12:17:19;100932.69;;;14.19;74.47
46241;BME280;31961;52.416;-0.732;2022-08-25T12:19:51;100937.01;;;14.09;73.60
46241;BME280;31961;52.416;-0.732;2022-08-25T12:23:27;100933.43;;;14.64;72.74
46241;BME280;31961;52.416;-0.732;2022-08-25T12:25:59;100934.78;;;13.93;72.98
46241;BME280;31961;52.416;-0.732;2022-08-25T12:28:39;100943.91;;;14.70;72.56
46241;BME280;31961;52.416;-0.732;2022-08-25T12:31:21;100943.91;;;14.36;72.34
46241;BME280;31961;52.416;-0.732;2022-08-25T12:34:06;100943.26;;;14.35;72.91
46241;BME280;31961;52.416;-0.732;2022-08-25T12:36:36;100944.16;;;14.94;72.30
46241;BME280;31961;52.416;-0.732;2022-08-25T12:39:22;100948.45;;;14.72;72.07
46241;BME280;31961;52.416;-0.732;2022-08-25T12:41:54;100956.31;;;13.62;74.73
46241;BME280;31961;52.416;-0.732;2022-08-25T12:44:36;100960.27;;;14.41;73.36
46241;BME280;31961;52.416;-0.732;2022-08-25T12:47:10;100971.84;;;13.80;75.48
46241;BME280;31961;52.416;-0.732;2022-08-25T12:49:37;100967.58;;;14.34;74.21
46241;BME280;31961;52.416;-0.732;2022-08-25T12:52:06;100972.02;;;14.22;74.86
46241;BME280;31961;52.416;-0.732;2022-08-25T12:54:44;100979.84;;;13.83;76.03
46241;BME280;31961;52.416;-0.732;2022-08-25T12:57:28;100983.66;;;13.96;74.69
46241;BME280;31961;52.416;-0.732;2022-08-25T13:00:16;100991.99;;;12.99;77.13